createdAt,value
2023-04-21T00:00:03.014Z,35.53
2023-04-21T00:01:03.043Z,35.51
2023-04-21T00:02:03.114Z,35.53
2023-04-21T00:03:03.187Z,35.51
2023-04-21T00:04:03.232Z,35.53
2023-04-21T00:05:03.300Z,35.50
2023-04-21T00:06:03.207Z,35.53
2023-04-21T00:07:03.210Z,35.50
2023-04-21T00:08:03.282Z,35.52
2023-04-21T00:09:03.309Z,35.53
2023-04-21T00:10:03.317Z,35.50
2023-04-21T00:11:03.655Z,35.49
2023-04-21T00:12:03.616Z,35.50
2023-04-21T00:13:03.424Z,35.49
2023-04-21T00:14:03.458Z,35.51
2023-04-21T00:15:03.508Z,35.51
2023-04-21T00:16:03.599Z,35.49
2023-04-21T00:17:03.576Z,35.51
2023-04-21T00:18:03.670Z,35.50
2023-04-21T00:19:03.643Z,35.50
2023-04-21T00:20:03.717Z,35.50
2023-04-21T00:21:03.715Z,35.52
2023-04-21T00:22:03.748Z,35.49
2023-04-21T00:23:03.818Z,35.50
2023-04-21T00:24:03.823Z,35.50
2023-04-21T00:25:03.858Z,35.50
2023-04-21T00:26:03.919Z,35.50
2023-04-21T00:27:03.951Z,35.50
2023-04-21T00:28:03.970Z,35.52
2023-04-21T00:29:04.014Z,35.49
2023-04-21T00:30:04.055Z,35.49
2023-04-21T00:31:04.126Z,35.48
2023-04-21T00:32:04.137Z,35.49
2023-04-21T00:33:04.199Z,35.48
2023-04-21T00:34:04.187Z,35.51
2023-04-21T00:35:04.246Z,35.50
2023-04-21T00:36:04.267Z,35.49
2023-04-21T00:37:04.281Z,35.50
2023-04-21T00:38:04.351Z,35.50
2023-04-21T00:39:04.368Z,35.49
2023-04-21T00:40:04.452Z,35.47
2023-04-21T00:41:04.450Z,35.46
2023-04-21T00:42:04.482Z,35.45
2023-04-21T00:43:04.498Z,35.46
2023-04-21T00:44:04.561Z,35.45
2023-04-21T00:45:04.600Z,35.47
2023-04-21T00:46:04.651Z,35.45
2023-04-21T00:47:04.778Z,35.46
2023-04-21T00:48:04.783Z,35.47
2023-04-21T00:49:04.755Z,35.46
2023-04-21T00:50:04.786Z,35.47
2023-04-21T00:51:04.848Z,35.45
2023-04-21T00:52:04.847Z,35.45
2023-04-21T00:53:04.888Z,35.46
2023-04-21T00:54:04.945Z,35.45
2023-04-21T00:55:04.983Z,35.45
2023-04-21T00:56:05.047Z,35.46
2023-04-21T00:57:05.060Z,35.45
2023-04-21T00:58:05.113Z,35.43
2023-04-21T00:59:05.163Z,35.45
2023-04-21T01:00:05.164Z,35.46
2023-04-21T01:01:05.297Z,35.45
2023-04-21T01:02:05.358Z,35.44
2023-04-21T01:03:05.396Z,35.40
2023-04-21T01:04:05.558Z,35.45
2023-04-21T01:05:05.369Z,35.44
2023-04-21T01:06:05.383Z,35.45
2023-04-21T01:07:05.426Z,35.42
2023-04-21T01:08:05.505Z,35.44
2023-04-21T01:09:05.535Z,35.47
2023-04-21T01:10:05.527Z,35.45
2023-04-21T01:11:05.575Z,35.44
2023-04-21T01:12:05.621Z,35.44
2023-04-21T01:13:05.651Z,35.42
2023-04-21T01:14:05.682Z,35.43
2023-04-21T01:15:05.747Z,35.43
2023-04-21T01:16:05.767Z,35.44
2023-04-21T01:17:05.807Z,35.41
2023-04-21T01:18:05.911Z,35.44
2023-04-21T01:19:05.918Z,35.42
2023-04-21T01:20:05.934Z,35.43
2023-04-21T01:21:05.964Z,35.44
2023-04-21T01:22:05.993Z,35.41
2023-04-21T01:23:06.047Z,35.43
2023-04-21T01:24:06.070Z,35.42
2023-04-21T01:25:06.147Z,35.42
2023-04-21T01:26:06.173Z,35.41
2023-04-21T01:27:06.177Z,35.41
2023-04-21T01:28:06.258Z,35.43
2023-04-21T01:29:06.272Z,35.43
2023-04-21T01:30:06.333Z,35.42
2023-04-21T01:31:06.336Z,35.43
2023-04-21T01:32:06.411Z,35.43
2023-04-21T01:33:06.481Z,35.44
2023-04-21T01:34:06.467Z,35.44
2023-04-21T01:35:06.501Z,35.42
2023-04-21T01:36:06.543Z,35.45
2023-04-21T01:37:06.592Z,35.43
2023-04-21T01:38:06.650Z,35.43
2023-04-21T01:39:06.657Z,35.45
2023-04-21T01:40:06.722Z,35.44
2023-04-21T01:41:06.748Z,35.42
2023-04-21T01:42:07.163Z,35.42
2023-04-21T01:43:06.835Z,35.40
2023-04-21T01:44:06.897Z,35.41
2023-04-21T01:45:06.917Z,35.42
2023-04-21T01:46:07.015Z,35.40
2023-04-21T01:47:07.009Z,35.40
2023-04-21T01:48:07.078Z,35.42
2023-04-21T01:49:07.064Z,35.41
2023-04-21T01:50:07.117Z,35.41
2023-04-21T01:51:07.196Z,35.41
2023-04-21T01:52:07.154Z,35.40
2023-04-21T01:53:07.236Z,35.40
2023-04-21T01:54:07.250Z,35.40
2023-04-21T01:55:07.304Z,35.42
2023-04-21T01:56:07.377Z,35.39
2023-04-21T01:57:07.466Z,35.40
2023-04-21T01:58:07.472Z,35.42
2023-04-21T01:59:07.496Z,35.40
2023-04-21T02:00:07.585Z,35.44
2023-04-21T02:01:07.586Z,35.43
2023-04-21T02:02:07.758Z,35.43
2023-04-21T02:03:07.902Z,35.40
2023-04-21T02:04:07.885Z,35.43
2023-04-21T02:05:07.756Z,35.42
2023-04-21T02:06:07.778Z,35.41
2023-04-21T02:07:07.838Z,35.39
2023-04-21T02:08:07.923Z,35.39
2023-04-21T02:09:07.902Z,35.42
2023-04-21T02:10:07.947Z,35.42
2023-04-21T02:11:07.961Z,35.40
2023-04-21T02:12:08.182Z,35.39
2023-04-21T02:13:08.064Z,35.40
2023-04-21T02:14:08.090Z,35.39
2023-04-21T02:15:08.161Z,35.37
2023-04-21T02:16:13.530Z,35.37
2023-04-21T02:17:09.203Z,35.39
2023-04-21T02:18:08.186Z,35.42
2023-04-21T02:19:08.172Z,35.38
2023-04-21T02:20:08.184Z,35.39
2023-04-21T02:21:08.147Z,35.37
2023-04-21T02:22:08.186Z,35.38
2023-04-21T02:23:08.152Z,35.38
2023-04-21T02:24:08.115Z,35.41
2023-04-21T02:25:08.118Z,35.36
2023-04-21T02:26:08.141Z,35.39
2023-04-21T02:27:08.112Z,35.39
2023-04-21T02:28:08.174Z,35.39
2023-04-21T02:29:08.222Z,35.37
2023-04-21T02:30:08.262Z,35.42
2023-04-21T02:31:08.412Z,35.42
2023-04-21T02:33:08.407Z,35.44
2023-04-21T02:34:08.436Z,35.39
2023-04-21T02:35:08.465Z,35.39
2023-04-21T02:36:08.538Z,35.39
2023-04-21T02:37:08.567Z,35.40
2023-04-21T02:38:08.623Z,35.40
2023-04-21T02:39:08.684Z,35.36
2023-04-21T02:40:08.729Z,35.39
2023-04-21T02:41:08.769Z,35.39
2023-04-21T02:42:08.846Z,35.41
2023-04-21T02:43:08.874Z,35.41
2023-04-21T02:44:08.938Z,35.43
2023-04-21T02:45:08.979Z,35.41
2023-04-21T02:46:09.041Z,35.40
2023-04-21T02:47:09.100Z,35.41
2023-04-21T02:48:09.177Z,35.41
2023-04-21T02:49:09.182Z,35.37
2023-04-21T02:50:09.254Z,35.41
2023-04-21T02:51:09.274Z,35.38
2023-04-21T02:52:09.348Z,35.37
2023-04-21T02:53:09.357Z,35.36
2023-04-21T02:54:09.426Z,35.36
2023-04-21T02:55:09.449Z,35.37
2023-04-21T02:56:09.541Z,35.34
2023-04-21T02:57:09.549Z,35.38
2023-04-21T02:58:09.614Z,35.37
2023-04-21T02:59:09.671Z,35.37
2023-04-21T03:00:09.702Z,35.36
2023-04-21T03:01:09.841Z,35.37
2023-04-21T03:02:09.875Z,35.33
2023-04-21T03:03:10.006Z,35.33
2023-04-21T03:04:09.974Z,35.38
2023-04-21T03:05:09.962Z,35.36
2023-04-21T03:06:10.014Z,35.37
2023-04-21T03:07:10.176Z,35.39
2023-04-21T03:08:10.097Z,35.38
2023-04-21T03:09:10.166Z,35.39
2023-04-21T03:10:10.237Z,35.36
2023-04-21T03:11:10.257Z,35.37
2023-04-21T03:12:10.336Z,35.35
2023-04-21T03:13:10.346Z,35.38
2023-04-21T03:14:10.409Z,35.36
2023-04-21T03:15:10.488Z,35.37
2023-04-21T03:16:10.626Z,35.36
2023-04-21T03:17:10.623Z,35.37
2023-04-21T03:18:10.716Z,35.35
2023-04-21T03:19:10.702Z,35.37
2023-04-21T03:20:10.735Z,35.37
2023-04-21T03:21:10.804Z,35.35
2023-04-21T03:22:10.883Z,35.36
2023-04-21T03:23:10.922Z,35.36
2023-04-21T03:24:10.959Z,35.38
2023-04-21T03:25:11.028Z,35.39
2023-04-21T03:26:11.050Z,35.35
2023-04-21T03:27:11.324Z,35.35
2023-04-21T03:28:11.138Z,35.35
2023-04-21T03:29:11.200Z,35.35
2023-04-21T03:30:11.281Z,35.36
2023-04-21T03:31:11.372Z,35.38
2023-04-21T03:32:11.486Z,35.37
2023-04-21T03:33:11.542Z,35.38
2023-04-21T03:34:11.537Z,35.37
2023-04-21T03:35:11.521Z,35.36
2023-04-21T03:36:11.602Z,35.37
2023-04-21T03:37:11.661Z,35.37
2023-04-21T03:38:11.682Z,35.39
2023-04-21T03:39:19.756Z,35.36
2023-04-21T03:40:12.720Z,35.36
2023-04-21T03:41:11.730Z,35.35
2023-04-21T03:42:11.697Z,35.36
2023-04-21T03:43:11.718Z,35.36
2023-04-21T03:44:11.688Z,35.36
2023-04-21T03:45:11.721Z,35.36
2023-04-21T03:46:11.715Z,35.35
2023-04-21T03:47:11.688Z,35.34
2023-04-21T03:48:11.785Z,35.36
2023-04-21T03:49:11.740Z,35.37
2023-04-21T03:50:11.793Z,35.37
2023-04-21T03:51:11.871Z,35.35
2023-04-21T03:52:11.883Z,35.35
2023-04-21T03:53:11.963Z,35.35
2023-04-21T03:54:11.976Z,35.35
2023-04-21T03:55:12.052Z,35.34
2023-04-21T03:56:12.099Z,35.37
2023-04-21T03:57:12.182Z,35.36
2023-04-21T03:58:12.215Z,35.33
2023-04-21T03:59:12.271Z,35.37
2023-04-21T04:00:12.298Z,35.36
2023-04-21T04:01:12.349Z,35.36
2023-04-21T04:02:12.575Z,35.34
2023-04-21T04:03:12.587Z,35.35
2023-04-21T04:04:12.925Z,35.35
2023-04-21T04:05:12.618Z,35.37
2023-04-21T04:06:12.622Z,35.32
2023-04-21T04:07:12.708Z,35.34
2023-04-21T04:08:12.747Z,35.36
2023-04-21T04:09:12.820Z,35.35
2023-04-21T04:10:12.873Z,35.36
2023-04-21T04:11:12.941Z,35.36
2023-04-21T04:12:13.030Z,35.36
2023-04-21T04:13:13.054Z,35.37
2023-04-21T04:14:13.115Z,35.34
2023-04-21T04:15:13.224Z,35.33
2023-04-21T04:16:13.342Z,35.33
2023-04-21T04:17:13.333Z,35.35
2023-04-21T04:18:13.362Z,35.35
2023-04-21T04:19:13.431Z,35.31
2023-04-21T04:20:13.483Z,35.34
2023-04-21T04:21:13.585Z,35.34
2023-04-21T04:22:13.634Z,35.35
2023-04-21T04:23:13.647Z,35.35
2023-04-21T04:24:13.775Z,35.35
2023-04-21T04:25:13.783Z,35.36
2023-04-21T04:26:13.857Z,35.29
2023-04-21T04:27:13.927Z,35.32
2023-04-21T04:28:13.948Z,35.33
2023-04-21T04:29:14.025Z,35.35
2023-04-21T04:30:14.112Z,35.33
2023-04-21T04:31:14.141Z,35.35
2023-04-21T04:32:14.191Z,35.33
2023-04-21T04:33:14.278Z,35.32
2023-04-21T04:34:14.314Z,35.34
2023-04-21T04:35:14.359Z,35.31
2023-04-21T04:36:14.421Z,35.34
2023-04-21T04:37:14.489Z,35.32
2023-04-21T04:38:14.567Z,35.31
2023-04-21T04:39:14.617Z,35.35
2023-04-21T04:40:14.694Z,35.34
2023-04-21T04:41:14.739Z,35.35
2023-04-21T04:42:14.820Z,35.31
2023-04-21T04:43:14.903Z,35.33
2023-04-21T04:44:14.930Z,35.33
2023-04-21T04:45:15.006Z,35.33
2023-04-21T04:46:15.100Z,35.32
2023-04-21T04:47:15.143Z,35.34
2023-04-21T04:48:15.224Z,35.32
2023-04-21T04:49:15.250Z,35.34
2023-04-21T04:50:15.316Z,35.32
2023-04-21T04:51:15.363Z,35.33
2023-04-21T04:52:15.433Z,35.33
2023-04-21T04:53:15.490Z,35.31
2023-04-21T04:54:15.564Z,35.30
2023-04-21T04:55:15.604Z,35.29
2023-04-21T04:56:15.686Z,35.29
2023-04-21T04:57:15.794Z,35.28
2023-04-21T04:58:15.812Z,35.27
2023-04-21T04:59:15.851Z,35.27
2023-04-21T05:00:16.041Z,35.30
2023-04-21T05:01:15.990Z,35.27
2023-04-21T05:02:16.103Z,35.28
2023-04-21T05:03:16.213Z,35.30
2023-04-21T05:04:16.356Z,35.28
2023-04-21T05:05:16.336Z,35.29
2023-04-21T05:06:16.286Z,35.28
2023-04-21T05:07:16.342Z,35.29
2023-04-21T05:08:17.996Z,35.29
2023-04-21T05:09:16.425Z,35.27
2023-04-21T05:10:16.550Z,35.28
2023-04-21T05:11:16.533Z,35.24
2023-04-21T05:12:16.709Z,35.27
2023-04-21T05:13:16.737Z,35.28
2023-04-21T05:14:16.760Z,35.27
2023-04-21T05:15:16.803Z,35.25
2023-04-21T05:16:16.889Z,35.27
2023-04-21T05:17:16.890Z,35.27
2023-04-21T05:18:16.975Z,35.25
2023-04-21T05:19:18.639Z,35.23
2023-04-21T05:20:17.029Z,35.22
2023-04-21T05:21:17.121Z,35.24
2023-04-21T05:22:17.137Z,35.24
2023-04-21T05:23:17.211Z,35.22
2023-04-21T05:24:17.351Z,35.22
2023-04-21T05:25:17.307Z,35.24
2023-04-21T05:26:17.395Z,35.30
2023-04-21T05:27:17.446Z,35.33
2023-04-21T05:28:17.471Z,35.30
2023-04-21T05:29:17.556Z,35.29
2023-04-21T05:30:17.606Z,35.26
2023-04-21T05:31:17.717Z,35.25
2023-04-21T05:32:17.768Z,35.23
2023-04-21T05:33:17.851Z,35.23
2023-04-21T05:34:17.956Z,35.27
2023-04-21T05:35:17.841Z,35.39
2023-04-21T05:36:17.970Z,35.53
2023-04-21T05:37:18.874Z,35.99
2023-04-21T05:38:17.904Z,36.34
2023-04-21T05:39:17.919Z,36.11
2023-04-21T05:40:17.975Z,36.21
2023-04-21T05:41:18.914Z,36.96
2023-04-21T05:42:18.876Z,37.03
2023-04-21T05:43:17.896Z,36.87
2023-04-21T05:44:18.318Z,36.80
2023-04-21T05:45:17.925Z,36.94
2023-04-21T05:46:17.969Z,36.83
2023-04-21T05:47:18.002Z,35.98
2023-04-21T05:48:18.033Z,35.75
2023-04-21T05:49:18.060Z,35.58
2023-04-21T05:50:18.106Z,35.52
2023-04-21T05:51:18.203Z,35.47
2023-04-21T05:52:18.150Z,35.42
2023-04-21T05:53:18.182Z,35.45
2023-04-21T05:54:18.468Z,35.66
2023-04-21T05:55:18.322Z,35.80
2023-04-21T05:56:18.400Z,35.89
2023-04-21T05:57:18.626Z,36.00
2023-04-21T05:58:19.254Z,36.16
2023-04-21T05:59:18.496Z,36.28
2023-04-21T06:00:18.502Z,36.37
2023-04-21T06:01:19.284Z,36.45
2023-04-21T06:02:18.941Z,36.60
2023-04-21T06:03:18.774Z,36.74
2023-04-21T06:04:18.966Z,36.83
2023-04-21T06:05:18.627Z,36.93
2023-04-21T06:06:18.629Z,36.98
2023-04-21T06:07:18.831Z,37.06
2023-04-21T06:08:18.643Z,37.08
2023-04-21T06:09:18.618Z,37.16
2023-04-21T06:10:18.616Z,37.21
2023-04-21T06:11:18.666Z,37.20
2023-04-21T06:12:18.679Z,37.19
2023-04-21T06:13:18.662Z,37.28
2023-04-21T06:14:19.179Z,37.31
2023-04-21T06:15:18.665Z,37.40
2023-04-21T06:16:18.753Z,37.41
2023-04-21T06:17:18.776Z,37.42
2023-04-21T06:18:18.700Z,37.46
2023-04-21T06:19:18.691Z,37.45
2023-04-21T06:20:18.741Z,37.48
2023-04-21T06:21:18.760Z,37.50
2023-04-21T06:22:18.771Z,37.50
2023-04-21T06:23:18.738Z,37.51
2023-04-21T06:24:18.922Z,37.47
2023-04-21T06:25:19.835Z,37.55
2023-04-21T06:26:18.892Z,37.63
2023-04-21T06:27:18.849Z,37.64
2023-04-21T06:28:18.836Z,37.70
2023-04-21T06:29:18.883Z,37.71
2023-04-21T06:30:18.928Z,37.71
2023-04-21T06:31:18.940Z,37.74
2023-04-21T06:32:18.952Z,37.78
2023-04-21T06:33:18.980Z,37.79
2023-04-21T06:34:19.224Z,37.77
2023-04-21T06:35:19.022Z,37.73
2023-04-21T06:36:19.040Z,37.81
2023-04-21T06:37:19.174Z,37.92
2023-04-21T06:38:19.149Z,40.11
2023-04-21T06:39:19.168Z,41.47
2023-04-21T06:40:19.169Z,41.23
2023-04-21T06:41:19.169Z,41.10
2023-04-21T06:42:19.799Z,41.43
2023-04-21T06:43:19.204Z,40.71
2023-04-21T06:44:19.514Z,40.16
2023-04-21T06:45:19.296Z,40.55
2023-04-21T06:46:19.301Z,40.54
2023-04-21T06:47:19.368Z,40.58
2023-04-21T06:48:19.318Z,40.22
2023-04-21T06:49:19.632Z,40.04
2023-04-21T06:50:19.393Z,39.69
2023-04-21T06:51:19.412Z,39.63
2023-04-21T06:52:20.166Z,39.78
2023-04-21T06:53:19.522Z,39.38
2023-04-21T06:54:19.600Z,39.27
2023-04-21T06:55:19.615Z,39.19
2023-04-21T06:56:19.668Z,38.90
2023-04-21T06:57:19.727Z,38.84
2023-04-21T06:58:21.300Z,38.89
2023-04-21T06:59:20.420Z,38.64
2023-04-21T07:00:19.817Z,38.76
2023-04-21T07:01:19.890Z,38.68
2023-04-21T07:02:19.965Z,39.74
2023-04-21T07:03:20.090Z,39.41
2023-04-21T07:04:20.052Z,40.68
2023-04-21T07:05:20.024Z,40.73
2023-04-21T07:06:19.994Z,39.86
2023-04-21T07:07:20.120Z,39.37
2023-04-21T07:08:20.043Z,38.99
2023-04-21T07:09:20.365Z,39.05
2023-04-21T07:10:20.168Z,38.55
2023-04-21T07:11:20.173Z,39.23
2023-04-21T07:12:20.156Z,39.02
2023-04-21T07:13:20.101Z,39.26
2023-04-21T07:14:20.105Z,38.77
2023-04-21T07:15:20.107Z,38.57
2023-04-21T07:16:20.208Z,38.33
2023-04-21T07:17:20.167Z,38.48
2023-04-21T07:18:20.126Z,38.43
2023-04-21T07:19:20.319Z,38.91
2023-04-21T07:20:20.118Z,39.06
2023-04-21T07:21:20.179Z,38.84
2023-04-21T07:22:20.183Z,39.07
2023-04-21T07:23:20.191Z,38.69
2023-04-21T07:24:20.207Z,39.01
2023-04-21T07:25:20.218Z,38.87
2023-04-21T07:26:20.309Z,38.76
2023-04-21T07:27:20.797Z,38.75
2023-04-21T07:28:20.442Z,38.95
2023-04-21T07:29:20.597Z,38.92
2023-04-21T07:30:20.509Z,38.74
2023-04-21T07:31:20.728Z,38.76
2023-04-21T07:32:20.706Z,39.17
2023-04-21T07:33:20.688Z,40.57
2023-04-21T07:34:20.745Z,40.66
2023-04-21T07:35:20.789Z,40.57
2023-04-21T07:36:20.793Z,40.46
2023-04-21T07:37:21.294Z,40.41
2023-04-21T07:38:20.864Z,40.35
2023-04-21T07:39:21.372Z,40.62
2023-04-21T07:40:20.998Z,40.54
2023-04-21T07:41:21.091Z,40.63
2023-04-21T07:42:21.292Z,40.60
2023-04-21T07:43:20.942Z,40.66
2023-04-21T07:44:20.981Z,40.57
2023-04-21T07:45:20.963Z,40.49
2023-04-21T07:46:21.012Z,40.39
2023-04-21T07:47:21.304Z,40.27
2023-04-21T07:48:21.047Z,40.17
2023-04-21T07:49:21.241Z,39.98
2023-04-21T07:50:21.038Z,39.79
2023-04-21T07:51:21.122Z,39.55
2023-04-21T07:52:21.074Z,39.43
2023-04-21T07:53:21.094Z,39.23
2023-04-21T07:54:21.124Z,39.15
2023-04-21T07:55:21.102Z,38.97
2023-04-21T07:56:21.117Z,38.87
2023-04-21T07:57:21.175Z,38.80
2023-04-21T07:58:21.120Z,38.75
2023-04-21T07:59:21.455Z,38.72
2023-04-21T08:00:21.155Z,38.78
2023-04-21T08:01:21.196Z,38.79
2023-04-21T08:02:21.261Z,38.75
2023-04-21T08:03:24.283Z,38.77
2023-04-21T08:04:21.597Z,38.75
2023-04-21T08:05:21.317Z,38.66
2023-04-21T08:06:21.426Z,38.64
2023-04-21T08:07:21.185Z,38.59
2023-04-21T08:08:21.205Z,38.53
2023-04-21T08:09:21.261Z,38.44
2023-04-21T08:10:21.243Z,38.34
2023-04-21T08:11:21.136Z,38.34
2023-04-21T08:12:21.151Z,38.24
2023-04-21T08:13:21.127Z,38.26
2023-04-21T08:14:21.294Z,38.26
2023-04-21T08:15:21.107Z,38.12
2023-04-21T08:16:21.134Z,38.14
2023-04-21T08:17:21.196Z,38.01
2023-04-21T08:18:22.441Z,38.08
2023-04-21T08:19:21.214Z,38.01
2023-04-21T08:20:21.081Z,37.93
2023-04-21T08:21:21.046Z,37.95
2023-04-21T08:22:21.560Z,38.01
2023-04-21T08:23:21.125Z,38.14
2023-04-21T08:24:21.263Z,38.03
2023-04-21T08:25:21.018Z,37.97
2023-04-21T08:26:21.022Z,37.73
2023-04-21T08:27:21.013Z,37.45
2023-04-21T08:28:21.018Z,37.57
2023-04-21T08:29:20.988Z,37.49
2023-04-21T08:30:21.059Z,37.39
2023-04-21T08:31:21.184Z,37.23
2023-04-21T08:32:21.203Z,37.05
2023-04-21T08:33:21.027Z,36.98
2023-04-21T08:34:22.112Z,36.87
2023-04-21T08:35:21.255Z,36.79
2023-04-21T08:36:28.984Z,36.72
2023-04-21T08:37:22.187Z,36.69
2023-04-21T08:38:21.200Z,36.57
2023-04-21T08:39:21.307Z,36.43
2023-04-21T08:40:21.201Z,36.42
2023-04-21T08:41:21.172Z,36.28
2023-04-21T08:42:21.337Z,36.24
2023-04-21T08:43:21.169Z,36.47
2023-04-21T08:44:21.333Z,37.45
2023-04-21T08:45:21.136Z,37.52
2023-04-21T08:46:21.218Z,37.66
2023-04-21T08:47:21.170Z,37.78
2023-04-21T08:48:21.145Z,37.86
2023-04-21T08:49:21.279Z,38.02
2023-04-21T08:50:21.161Z,38.15
2023-04-21T08:51:21.146Z,37.03
2023-04-21T08:52:21.171Z,37.41
2023-04-21T08:53:21.180Z,38.08
2023-04-21T08:54:21.217Z,38.16
2023-04-21T08:55:21.265Z,38.41
2023-04-21T08:56:21.336Z,38.56
2023-04-21T08:57:21.599Z,38.66
2023-04-21T08:58:21.435Z,38.69
2023-04-21T08:59:21.738Z,38.63
2023-04-21T09:00:21.602Z,38.58
2023-04-21T09:01:21.667Z,38.66
2023-04-21T09:02:21.713Z,38.73
2023-04-21T09:03:26.093Z,38.77
2023-04-21T09:04:21.803Z,38.83
2023-04-21T09:05:21.972Z,38.98
2023-04-21T09:06:21.931Z,39.05
2023-04-21T09:07:21.648Z,39.06
2023-04-21T09:08:21.677Z,39.06
2023-04-21T09:09:21.867Z,39.07
2023-04-21T09:10:21.653Z,39.20
2023-04-21T09:11:21.609Z,39.22
2023-04-21T09:12:21.592Z,39.17
2023-04-21T09:13:21.759Z,39.18
2023-04-21T09:14:21.656Z,39.18
2023-04-21T09:15:21.557Z,39.31
2023-04-21T09:16:22.369Z,39.28
2023-04-21T09:17:21.611Z,39.11
2023-04-21T09:18:21.546Z,39.30
2023-04-21T09:19:21.654Z,39.47
2023-04-21T09:20:21.619Z,39.65
2023-04-21T09:21:22.430Z,39.59
2023-04-21T09:22:21.567Z,39.64
2023-04-21T09:23:21.599Z,39.70
2023-04-21T09:24:21.609Z,39.61
2023-04-21T09:25:21.640Z,39.70
2023-04-21T09:26:21.610Z,39.65
2023-04-21T09:27:21.643Z,39.74
2023-04-21T09:28:21.726Z,39.83
2023-04-21T09:29:21.827Z,40.09
2023-04-21T09:30:21.677Z,40.12
2023-04-21T09:31:21.747Z,40.34
2023-04-21T09:32:21.760Z,40.41
2023-04-21T09:33:30.693Z,40.01
2023-04-21T09:34:22.793Z,39.47
2023-04-21T09:35:21.735Z,39.32
2023-04-21T09:36:21.765Z,39.10
2023-04-21T09:37:21.841Z,38.99
2023-04-21T09:38:21.732Z,38.99
2023-04-21T09:39:38.253Z,39.07
2023-04-21T09:40:22.715Z,39.24
2023-04-21T09:41:21.672Z,39.34
2023-04-21T09:42:21.838Z,39.40
2023-04-21T09:43:21.659Z,39.22
2023-04-21T09:44:21.887Z,39.22
2023-04-21T09:45:32.969Z,39.16
2023-04-21T09:46:22.710Z,37.88
2023-04-21T09:47:21.664Z,38.02
2023-04-21T09:48:22.524Z,38.64
2023-04-21T09:49:21.610Z,39.01
2023-04-21T09:50:39.153Z,39.02
2023-04-21T09:51:36.875Z,39.17
2023-04-21T09:52:22.595Z,39.18
2023-04-21T09:53:21.596Z,38.82
2023-04-21T09:54:29.012Z,38.64
2023-04-21T09:55:22.562Z,38.59
2023-04-21T09:56:21.571Z,38.77
2023-04-21T09:57:21.581Z,38.73
2023-04-21T09:58:21.537Z,38.65
2023-04-21T09:59:23.525Z,38.35
2023-04-21T10:00:21.557Z,37.80
2023-04-21T10:01:21.537Z,37.68
2023-04-21T10:02:21.905Z,37.50
2023-04-21T10:03:21.615Z,37.43
2023-04-21T10:04:21.965Z,37.08
2023-04-21T10:05:21.591Z,36.87
2023-04-21T10:06:21.570Z,35.53
2023-04-21T10:07:21.556Z,34.89
2023-04-21T10:08:21.569Z,35.31
2023-04-21T10:09:21.527Z,34.00
2023-04-21T10:10:21.598Z,34.87
2023-04-21T10:11:21.804Z,35.02
2023-04-21T10:12:21.835Z,34.13
2023-04-21T10:13:21.936Z,33.73
2023-04-21T10:14:22.153Z,33.26
2023-04-21T10:15:21.992Z,32.49
2023-04-21T10:16:22.016Z,33.33
2023-04-21T10:17:21.998Z,33.28
2023-04-21T10:18:21.972Z,32.50
2023-04-21T10:19:22.013Z,31.38
2023-04-21T10:20:22.022Z,30.98
2023-04-21T10:21:22.271Z,31.39
2023-04-21T10:22:22.399Z,31.70
2023-04-21T10:23:22.108Z,31.11
2023-04-21T10:24:22.375Z,31.35
2023-04-21T10:25:22.133Z,31.35
2023-04-21T10:26:22.196Z,31.32
2023-04-21T10:27:22.271Z,32.89
2023-04-21T10:28:22.293Z,33.95
2023-04-21T10:29:22.254Z,34.01
2023-04-21T10:30:22.277Z,34.03
2023-04-21T10:31:22.318Z,34.17
2023-04-21T10:32:22.381Z,34.69
2023-04-21T10:33:22.333Z,34.68
2023-04-21T10:34:22.578Z,33.81
2023-04-21T10:35:22.372Z,33.86
2023-04-21T10:36:22.468Z,34.79
2023-04-21T10:37:22.406Z,34.75
2023-04-21T10:38:22.872Z,34.99
2023-04-21T10:39:22.449Z,35.14
2023-04-21T10:40:33.019Z,35.04
2023-04-21T10:41:23.530Z,35.27
2023-04-21T10:42:22.467Z,35.08
2023-04-21T10:43:22.883Z,35.07
2023-04-21T10:44:22.595Z,35.17
2023-04-21T10:45:22.460Z,35.41
2023-04-21T10:46:22.485Z,35.52
2023-04-21T10:47:22.497Z,35.79
2023-04-21T10:48:22.455Z,35.91
2023-04-21T10:49:22.449Z,36.08
2023-04-21T10:50:22.385Z,36.27
2023-04-21T10:51:22.396Z,36.38
2023-04-21T10:52:22.377Z,36.63
2023-04-21T10:53:22.407Z,36.73
2023-04-21T10:54:22.496Z,36.87
2023-04-21T10:55:22.382Z,37.03
2023-04-21T10:56:22.434Z,37.20
2023-04-21T10:57:22.421Z,37.38
2023-04-21T10:58:22.894Z,37.57
2023-04-21T10:59:22.498Z,37.71
2023-04-21T11:00:23.401Z,37.80
2023-04-21T11:01:22.658Z,37.91
2023-04-21T11:02:22.844Z,38.08
2023-04-21T11:03:22.781Z,38.18
2023-04-21T11:04:23.671Z,38.38
2023-04-21T11:05:22.821Z,38.53
2023-04-21T11:06:22.887Z,38.61
2023-04-21T11:07:22.982Z,38.83
2023-04-21T11:08:22.967Z,38.91
2023-04-21T11:09:23.000Z,39.11
2023-04-21T11:10:23.048Z,39.22
2023-04-21T11:11:23.109Z,39.30
2023-04-21T11:12:23.146Z,39.44
2023-04-21T11:13:23.174Z,39.85
2023-04-21T11:14:23.200Z,39.98
2023-04-21T11:15:23.281Z,40.11
2023-04-21T11:16:23.359Z,39.91
2023-04-21T11:17:23.347Z,39.82
2023-04-21T11:18:23.346Z,39.75
2023-04-21T11:19:23.335Z,39.59
2023-04-21T11:20:23.427Z,39.38
2023-04-21T11:21:23.375Z,39.28
2023-04-21T11:22:23.415Z,39.04
2023-04-21T11:23:23.459Z,38.97
2023-04-21T11:24:23.558Z,38.97
2023-04-21T11:25:23.553Z,38.97
2023-04-21T11:26:23.599Z,38.92
2023-04-21T11:27:23.694Z,38.86
2023-04-21T11:28:23.893Z,38.82
2023-04-21T11:29:23.784Z,38.76
2023-04-21T11:30:23.757Z,38.73
2023-04-21T11:31:23.862Z,38.71
2023-04-21T11:32:23.889Z,38.70
2023-04-21T11:33:24.391Z,38.65
2023-04-21T11:34:24.005Z,38.56
2023-04-21T11:35:24.017Z,38.55
2023-04-21T11:36:24.068Z,38.53
2023-04-21T11:37:24.136Z,38.49
2023-04-21T11:38:24.185Z,38.44
2023-04-21T11:39:24.219Z,38.42
2023-04-21T11:40:24.520Z,38.40
2023-04-21T11:41:24.340Z,38.37
2023-04-21T11:42:24.381Z,38.34
2023-04-21T11:43:24.890Z,38.33
2023-04-21T11:44:24.495Z,38.28
2023-04-21T11:45:24.537Z,38.25
2023-04-21T11:46:24.828Z,38.19
2023-04-21T11:47:24.743Z,38.16
2023-04-21T11:48:24.725Z,38.14
2023-04-21T11:49:24.782Z,38.10
2023-04-21T11:50:24.853Z,38.06
2023-04-21T11:51:24.921Z,37.96
2023-04-21T11:52:24.980Z,37.89
2023-04-21T11:53:25.071Z,37.91
2023-04-21T11:54:25.078Z,37.86
2023-04-21T11:55:25.178Z,37.83
2023-04-21T11:56:25.214Z,37.79
2023-04-21T11:57:25.293Z,37.71
2023-04-21T11:58:25.320Z,37.70
2023-04-21T11:59:26.050Z,37.68
2023-04-21T12:00:25.463Z,37.68
2023-04-21T12:01:25.558Z,37.64
2023-04-21T12:02:25.734Z,37.60
2023-04-21T12:03:25.768Z,37.59
2023-04-21T12:04:25.918Z,37.47
2023-04-21T12:05:25.933Z,37.44
2023-04-21T12:06:26.074Z,37.46
2023-04-21T12:07:25.855Z,37.43
2023-04-21T12:08:25.964Z,37.38
2023-04-21T12:09:26.003Z,37.37
2023-04-21T12:10:26.046Z,37.27
2023-04-21T12:11:26.142Z,37.16
2023-04-21T12:12:26.176Z,37.07
2023-04-21T12:13:26.221Z,37.11
2023-04-21T12:14:26.288Z,37.10
2023-04-21T12:15:26.377Z,37.12
2023-04-21T12:16:26.468Z,37.10
2023-04-21T12:17:26.504Z,37.09
2023-04-21T12:18:26.510Z,37.04
2023-04-21T12:19:26.633Z,37.00
2023-04-21T12:20:26.644Z,36.97
2023-04-21T12:21:26.743Z,36.98
2023-04-21T12:22:26.773Z,36.98
2023-04-21T12:23:26.914Z,36.98
2023-04-21T12:24:26.868Z,36.92
2023-04-21T12:25:26.976Z,36.90
2023-04-21T12:26:27.012Z,36.93
2023-04-21T12:27:27.065Z,36.95
2023-04-21T12:28:27.166Z,36.92
2023-04-21T12:29:27.220Z,36.90
2023-04-21T12:30:27.276Z,36.87
2023-04-21T12:31:27.388Z,36.87
2023-04-21T12:32:27.416Z,36.88
2023-04-21T12:33:27.511Z,36.88
2023-04-21T12:34:27.516Z,36.88
2023-04-21T12:35:27.608Z,36.86
2023-04-21T12:36:27.700Z,36.87
2023-04-21T12:37:27.681Z,36.85
2023-04-21T12:38:27.780Z,36.86
2023-04-21T12:39:28.105Z,36.82
2023-04-21T12:40:27.875Z,36.84
2023-04-21T12:41:27.965Z,36.83
2023-04-21T12:42:28.012Z,36.81
2023-04-21T12:43:28.099Z,36.85
2023-04-21T12:44:28.118Z,36.83
2023-04-21T12:45:28.259Z,36.84
2023-04-21T12:46:28.252Z,36.80
2023-04-21T12:47:28.370Z,36.79
2023-04-21T12:48:28.356Z,36.77
2023-04-21T12:49:28.669Z,36.77
2023-04-21T12:50:28.486Z,36.76
2023-04-21T12:51:28.505Z,36.72
2023-04-21T12:52:28.604Z,36.72
2023-04-21T12:53:30.639Z,36.73